createdAt,value
2018-11-26T00:00:02.493Z,88.29
2018-11-26T00:02:49.547Z,88.88
2018-11-26T00:05:36.707Z,87.69
2018-11-26T00:08:23.714Z,88.42
2018-11-26T00:11:35.659Z,88.89
2018-11-26T00:14:38.261Z,89.24
2018-11-26T00:17:25.494Z,89.77
2018-11-26T00:20:13.627Z,90.08
2018-11-26T00:23:00.985Z,90.35
2018-11-26T00:25:48.138Z,90.42
2018-11-26T00:28:35.408Z,90.54
2018-11-26T00:31:23.325Z,89.21
2018-11-26T00:34:10.617Z,89.80
2018-11-26T00:36:57.901Z,88.59
2018-11-26T00:39:45.314Z,89.26
2018-11-26T00:42:32.589Z,89.72
2018-11-26T00:45:20.125Z,88.47
2018-11-26T00:48:07.168Z,89.17
2018-11-26T00:50:54.875Z,89.60
2018-11-26T00:53:42.134Z,89.79
2018-11-26T00:56:30.020Z,88.58
2018-11-26T00:59:17.330Z,87.76
2018-11-26T01:02:04.620Z,88.90
2018-11-26T01:04:52.146Z,89.37
2018-11-26T01:07:39.451Z,88.20
2018-11-26T01:10:26.956Z,88.96
2018-11-26T01:13:14.273Z,89.44
2018-11-26T01:16:01.325Z,89.88
2018-11-26T01:18:48.484Z,90.06
2018-11-26T01:21:35.561Z,90.23
2018-11-26T01:24:23.060Z,90.44
2018-11-26T01:27:10.462Z,90.58
2018-11-26T01:29:57.684Z,90.73
2018-11-26T01:32:45.016Z,90.82
2018-11-26T01:35:32.483Z,89.49
2018-11-26T01:41:25.489Z,90.04
2018-11-26T01:44:12.864Z,90.08
2018-11-26T01:47:01.411Z,90.20
2018-11-26T01:49:48.712Z,90.22
2018-11-26T01:52:36.509Z,90.22
2018-11-26T01:55:24.963Z,90.32
2018-11-26T01:58:12.497Z,90.40
2018-11-26T02:01:00.481Z,90.36
2018-11-26T02:03:48.380Z,90.31
2018-11-26T02:06:36.267Z,90.24
2018-11-26T02:09:23.814Z,90.23
2018-11-26T02:12:11.689Z,90.13
2018-11-26T02:15:02.667Z,90.15
2018-11-26T02:17:49.887Z,90.16
2018-11-26T02:20:36.800Z,90.13
2018-11-26T02:23:23.971Z,90.03
2018-11-26T02:26:12.218Z,90.07
2018-11-26T02:28:59.494Z,89.94
2018-11-26T02:31:47.182Z,89.90
2018-11-26T02:34:34.588Z,89.85
2018-11-26T02:37:25.689Z,89.94
2018-11-26T02:40:12.946Z,89.80
2018-11-26T02:43:00.231Z,89.65
2018-11-26T02:45:47.613Z,89.57
2018-11-26T02:48:35.249Z,89.44
2018-11-26T02:51:22.763Z,89.40
2018-11-26T02:54:10.066Z,89.31
2018-11-26T02:56:57.541Z,89.28
2018-11-26T02:59:45.600Z,89.19
2018-11-26T03:02:33.119Z,89.05
2018-11-26T03:05:20.742Z,88.98
2018-11-26T03:08:08.164Z,88.92
2018-11-26T03:10:56.141Z,88.82
2018-11-26T03:13:43.602Z,88.73
2018-11-26T03:16:30.465Z,88.61
2018-11-26T03:19:17.538Z,88.48
2018-11-26T03:22:04.723Z,88.43
2018-11-26T03:24:52.240Z,88.50
2018-11-26T03:27:39.704Z,88.52
2018-11-26T03:30:27.162Z,88.64
2018-11-26T03:33:14.749Z,88.73
2018-11-26T03:36:01.869Z,88.76
2018-11-26T03:38:49.244Z,88.89
2018-11-26T03:41:36.519Z,87.60
2018-11-26T03:44:24.089Z,88.10
2018-11-26T03:47:11.638Z,88.30
2018-11-26T03:49:59.182Z,87.00
2018-11-26T03:52:46.253Z,87.63
2018-11-26T03:55:33.879Z,87.93
2018-11-26T04:01:28.007Z,88.34
2018-11-26T04:04:16.345Z,88.53
2018-11-26T04:07:03.848Z,88.63
2018-11-26T04:09:51.126Z,88.70
2018-11-26T04:12:38.521Z,88.84
2018-11-26T04:15:26.034Z,88.90
2018-11-26T04:18:13.359Z,89.00
2018-11-26T04:21:00.787Z,89.21
2018-11-26T04:23:48.099Z,89.40
2018-11-26T04:26:35.295Z,89.81
2018-11-26T04:29:22.367Z,89.99
2018-11-26T04:32:11.117Z,90.12
2018-11-26T04:34:58.239Z,90.22
2018-11-26T04:37:46.341Z,88.85
2018-11-26T04:40:33.855Z,89.64
2018-11-26T04:43:20.830Z,89.94
2018-11-26T04:46:08.052Z,90.15
2018-11-26T04:48:55.415Z,90.46
2018-11-26T04:51:42.897Z,90.53
2018-11-26T04:54:30.246Z,90.74
2018-11-26T04:57:17.829Z,90.89
2018-11-26T05:00:04.934Z,90.88
2018-11-26T05:02:52.067Z,91.01
2018-11-26T05:05:39.606Z,91.17
2018-11-26T05:08:27.111Z,91.11
2018-11-26T05:11:14.541Z,89.71
2018-11-26T05:14:01.693Z,90.34
2018-11-26T05:16:49.889Z,90.54
2018-11-26T05:19:38.153Z,90.65
2018-11-26T05:22:26.284Z,90.78
2018-11-26T05:25:15.014Z,89.34
2018-11-26T05:28:03.919Z,89.78
2018-11-26T05:30:51.196Z,90.06
2018-11-26T05:33:38.901Z,90.22
2018-11-26T05:36:26.220Z,90.43
2018-11-26T05:39:13.981Z,90.52
2018-11-26T05:42:02.708Z,90.71
2018-11-26T05:44:50.640Z,90.80
2018-11-26T05:47:38.967Z,90.91
2018-11-26T05:50:30.861Z,91.01
2018-11-26T05:53:18.141Z,91.08
2018-11-26T05:56:06.056Z,91.16
2018-11-26T05:58:53.903Z,91.15
2018-11-26T06:01:41.700Z,91.28
2018-11-26T06:04:28.953Z,91.20
2018-11-26T06:07:16.743Z,91.05
2018-11-26T06:10:04.780Z,91.14
2018-11-26T06:12:54.741Z,91.12
2018-11-26T06:15:43.716Z,91.10
2018-11-26T06:18:31.530Z,90.94
2018-11-26T06:21:23.500Z,90.90
2018-11-26T06:27:28.489Z,90.80
2018-11-26T06:30:18.084Z,90.82
2018-11-26T06:33:08.953Z,90.87
2018-11-26T06:35:56.498Z,90.92
2018-11-26T06:38:48.546Z,90.94
2018-11-26T06:41:36.116Z,89.60
2018-11-26T06:44:29.699Z,88.56
2018-11-26T06:47:21.660Z,89.06
2018-11-26T06:50:10.097Z,89.11
2018-11-26T06:52:57.915Z,89.09
2018-11-26T06:55:45.584Z,89.12
2018-11-26T06:58:33.744Z,89.09
2018-11-26T07:01:23.052Z,89.20
2018-11-26T07:07:17.643Z,89.35
2018-11-26T07:10:06.766Z,88.08
2018-11-26T07:12:54.517Z,88.49
2018-11-26T07:15:45.374Z,88.84
2018-11-26T07:18:34.944Z,89.01
2018-11-26T07:21:25.337Z,89.30
2018-11-26T07:24:13.419Z,89.58
2018-11-26T07:27:02.492Z,89.82
2018-11-26T07:29:52.049Z,90.04
2018-11-26T07:32:39.433Z,90.16
2018-11-26T07:35:26.998Z,90.38
2018-11-26T07:38:14.625Z,90.52
2018-11-26T07:41:02.442Z,90.71
2018-11-26T07:43:49.970Z,90.88
2018-11-26T07:46:37.230Z,90.92
2018-11-26T07:49:25.118Z,89.45
2018-11-26T07:52:13.346Z,89.87
2018-11-26T07:55:04.490Z,90.27
2018-11-26T08:00:59.945Z,90.41
2018-11-26T08:03:50.381Z,90.26
2018-11-26T08:06:42.182Z,90.29
2018-11-26T08:09:39.991Z,90.26
2018-11-26T08:12:28.002Z,90.24
2018-11-26T08:15:18.083Z,90.41
2018-11-26T08:18:08.595Z,90.58
2018-11-26T08:24:10.014Z,90.98
2018-11-26T08:27:00.968Z,91.14
2018-11-26T08:29:49.245Z,91.18
2018-11-26T08:32:51.124Z,91.23
2018-11-26T08:35:39.884Z,91.25
2018-11-26T08:38:31.325Z,91.30
2018-11-26T08:41:18.549Z,91.33
2018-11-26T08:44:09.616Z,91.30
2018-11-26T08:50:04.318Z,91.33
2018-11-26T08:52:52.995Z,91.18
2018-11-26T08:55:43.391Z,91.09
2018-11-26T09:01:39.646Z,90.19
2018-11-26T09:04:37.542Z,90.41
2018-11-26T09:07:26.292Z,88.87
2018-11-26T09:10:14.446Z,89.58
2018-11-26T09:13:03.396Z,89.81
2018-11-26T09:15:52.117Z,89.89
2018-11-26T09:18:41.227Z,89.91
2018-11-26T09:21:29.739Z,89.90
2018-11-26T09:24:19.428Z,89.87
2018-11-26T09:27:10.067Z,89.80
2018-11-26T09:29:59.439Z,89.67
2018-11-26T09:32:50.609Z,89.65
2018-11-26T09:35:38.528Z,89.49
2018-11-26T09:41:42.245Z,89.16
2018-11-26T09:44:31.598Z,88.99
2018-11-26T09:47:28.559Z,88.81
2018-11-26T09:50:17.716Z,88.72
2018-11-26T09:53:14.301Z,87.16
2018-11-26T09:56:02.881Z,87.38
2018-11-26T09:58:52.353Z,87.29
2018-11-26T10:01:40.336Z,85.57
2018-11-26T10:04:30.371Z,85.86
2018-11-26T10:07:20.185Z,85.95
2018-11-26T10:10:08.534Z,85.95
2018-11-26T10:12:57.794Z,85.82
2018-11-26T10:15:54.369Z,85.78
2018-11-26T10:18:50.019Z,85.95
2018-11-26T10:21:38.184Z,86.07
2018-11-26T10:24:26.708Z,86.05
2018-11-26T10:27:15.956Z,86.03
2018-11-26T10:30:06.658Z,85.93
2018-11-26T10:32:56.172Z,84.08
2018-11-26T10:35:51.089Z,84.42
2018-11-26T10:38:41.214Z,84.37
2018-11-26T10:41:32.559Z,84.51
2018-11-26T10:44:27.326Z,84.61
2018-11-26T10:47:17.603Z,84.75
2018-11-26T10:53:12.886Z,85.09
2018-11-26T10:56:01.198Z,85.30
2018-11-26T10:58:49.162Z,85.37
2018-11-26T11:01:41.099Z,85.49
2018-11-26T11:04:32.041Z,85.43
2018-11-26T11:07:21.494Z,85.50
2018-11-26T11:10:10.978Z,85.46
2018-11-26T11:13:01.368Z,85.39
2018-11-26T11:15:49.515Z,85.40
2018-11-26T11:18:37.882Z,85.32
2018-11-26T11:21:25.760Z,85.25
2018-11-26T11:24:17.505Z,85.43
2018-11-26T11:27:05.137Z,85.49
2018-11-26T11:29:54.932Z,85.61
2018-11-26T11:32:46.100Z,85.59
2018-11-26T11:35:31.951Z,85.60
2018-11-26T11:38:21.307Z,85.82
2018-11-26T11:41:14.380Z,85.76
2018-11-26T11:44:04.448Z,85.87
2018-11-26T11:46:54.899Z,85.87
2018-11-26T11:49:44.906Z,84.28
2018-11-26T11:55:42.333Z,85.15
2018-11-26T11:58:30.207Z,83.46
2018-11-26T12:01:18.001Z,84.07
2018-11-26T12:04:14.974Z,84.47
2018-11-26T12:07:02.813Z,84.78
2018-11-26T12:09:52.780Z,85.12
2018-11-26T12:12:43.093Z,85.21
2018-11-26T12:15:32.172Z,85.24
2018-11-26T12:18:19.690Z,85.21
2018-11-26T12:21:06.773Z,85.10
2018-11-26T12:23:55.475Z,83.22
2018-11-26T12:26:45.105Z,83.75
2018-11-26T12:29:33.650Z,84.08
2018-11-26T12:32:21.295Z,84.31
2018-11-26T12:35:09.785Z,84.50
2018-11-26T12:38:02.323Z,84.62
2018-11-26T12:40:50.470Z,84.78
2018-11-26T12:43:40.169Z,84.79
2018-11-26T12:46:30.795Z,83.17
2018-11-26T12:49:17.942Z,83.63
2018-11-26T12:52:05.780Z,83.82
2018-11-26T12:54:52.901Z,84.02
2018-11-26T12:57:40.116Z,84.04
2018-11-26T13:00:27.508Z,84.12
2018-11-26T13:03:16.934Z,82.33
2018-11-26T13:06:04.390Z,83.07
2018-11-26T13:08:53.464Z,83.46
2018-11-26T13:11:40.968Z,81.93
2018-11-26T13:14:28.494Z,82.61
2018-11-26T13:20:24.088Z,83.40
2018-11-26T13:23:13.516Z,81.83
2018-11-26T13:26:04.464Z,82.72
2018-11-26T13:28:56.857Z,83.19
2018-11-26T13:31:47.636Z,83.63
2018-11-26T13:34:37.292Z,83.81
2018-11-26T13:37:29.133Z,84.02
2018-11-26T13:40:19.726Z,84.39
2018-11-26T13:43:09.252Z,84.55
2018-11-26T13:45:56.525Z,84.78
2018-11-26T13:48:47.200Z,85.09
2018-11-26T13:51:34.336Z,85.45
2018-11-26T13:54:21.735Z,85.46
2018-11-26T13:57:08.946Z,85.56
2018-11-26T13:59:57.751Z,85.73
2018-11-26T14:02:45.083Z,85.75
2018-11-26T14:05:32.961Z,84.22
2018-11-26T14:08:20.310Z,85.06
2018-11-26T14:11:07.632Z,85.37
2018-11-26T14:13:55.237Z,84.10
2018-11-26T14:16:43.645Z,84.84
2018-11-26T14:19:30.817Z,85.18
2018-11-26T14:25:24.329Z,85.75
2018-11-26T14:28:13.458Z,85.68
2018-11-26T14:31:00.908Z,85.79
2018-11-26T14:33:48.401Z,85.73
2018-11-26T14:36:35.655Z,85.74
2018-11-26T14:39:23.400Z,84.17
2018-11-26T14:42:11.187Z,82.95
2018-11-26T14:44:59.191Z,81.82
2018-11-26T14:47:54.733Z,82.55
2018-11-26T14:50:42.268Z,82.97
2018-11-26T14:53:29.393Z,81.48
2018-11-26T14:56:17.661Z,82.21
2018-11-26T14:59:04.674Z,82.73
2018-11-26T15:01:51.789Z,82.85
2018-11-26T15:04:39.168Z,83.05
2018-11-26T15:07:26.387Z,83.30
2018-11-26T15:10:18.218Z,83.69
2018-11-26T15:13:05.549Z,83.87
2018-11-26T15:15:53.732Z,83.98
2018-11-26T15:18:42.212Z,83.98
2018-11-26T15:21:32.246Z,84.05
2018-11-26T15:24:20.156Z,82.43
2018-11-26T15:27:07.511Z,82.89
2018-11-26T15:29:55.199Z,83.16
2018-11-26T15:32:42.606Z,83.27
2018-11-26T15:38:36.196Z,83.52
2018-11-26T15:41:23.609Z,83.67
2018-11-26T15:44:10.859Z,84.00
2018-11-26T15:46:59.797Z,84.35
2018-11-26T15:49:46.915Z,84.55
2018-11-26T15:52:34.324Z,84.86
2018-11-26T15:55:21.899Z,84.97
2018-11-26T15:58:09.397Z,84.76
2018-11-26T16:00:56.531Z,83.13
2018-11-26T16:03:43.685Z,83.53
2018-11-26T16:06:31.134Z,83.67
2018-11-26T16:09:18.232Z,83.75
2018-11-26T16:12:14.459Z,83.74
2018-11-26T16:15:00.461Z,83.79
2018-11-26T16:17:47.676Z,83.78
2018-11-26T16:20:34.935Z,82.25
2018-11-26T16:23:22.392Z,82.63
2018-11-26T16:26:10.593Z,82.95
2018-11-26T16:28:59.763Z,83.40
2018-11-26T16:31:47.123Z,83.55
2018-11-26T16:34:34.366Z,82.08
2018-11-26T16:37:25.761Z,80.88
2018-11-26T16:40:14.960Z,81.93
2018-11-26T16:43:01.866Z,82.61
2018-11-26T16:45:49.202Z,83.03
2018-11-26T16:48:36.651Z,83.35
2018-11-26T16:51:24.491Z,83.54
2018-11-26T16:54:11.671Z,83.65
2018-11-26T16:56:58.887Z,83.79
2018-11-26T16:59:46.146Z,83.92
2018-11-26T17:02:33.605Z,84.05
2018-11-26T17:05:20.908Z,84.38
2018-11-26T17:08:08.518Z,84.42
2018-11-26T17:10:55.606Z,83.08
2018-11-26T17:13:43.215Z,82.02
2018-11-26T17:16:32.071Z,82.90
2018-11-26T17:19:19.451Z,83.59
2018-11-26T17:22:07.815Z,84.00
2018-11-26T17:24:55.835Z,84.22
2018-11-26T17:27:43.073Z,84.40
2018-11-26T17:30:30.070Z,84.72
2018-11-26T17:33:17.788Z,84.91
2018-11-26T17:36:05.883Z,85.00
2018-11-26T17:38:53.667Z,83.47
2018-11-26T17:41:40.827Z,84.01
2018-11-26T17:44:28.202Z,84.35
2018-11-26T17:47:16.688Z,84.44
2018-11-26T17:50:04.311Z,84.38
2018-11-26T17:52:51.693Z,84.27
2018-11-26T17:55:42.886Z,82.77
2018-11-26T17:58:30.172Z,81.41
2018-11-26T18:01:17.569Z,82.25
2018-11-26T18:04:04.801Z,82.73
2018-11-26T18:06:51.818Z,83.19
2018-11-26T18:12:46.410Z,84.07
2018-11-26T18:15:33.381Z,84.24
2018-11-26T18:18:20.905Z,84.47
2018-11-26T18:21:08.268Z,83.06
2018-11-26T18:23:56.081Z,83.55
2018-11-26T18:26:43.351Z,82.31
2018-11-26T18:29:30.840Z,83.30
2018-11-26T18:32:18.057Z,83.88
2018-11-26T18:35:05.277Z,84.29
2018-11-26T18:37:52.674Z,84.63
2018-11-26T18:40:40.365Z,84.93
2018-11-26T18:43:27.663Z,83.60
2018-11-26T18:46:15.503Z,84.47
2018-11-26T18:52:12.117Z,81.77
2018-11-26T18:55:07.703Z,82.90
2018-11-26T18:57:55.011Z,83.67
2018-11-26T19:00:43.048Z,84.20
2018-11-26T19:03:30.348Z,84.55
2018-11-26T19:06:18.043Z,84.87
2018-11-26T19:09:06.481Z,85.06
2018-11-26T19:11:53.551Z,85.27
2018-11-26T19:14:40.923Z,85.64
2018-11-26T19:17:28.272Z,85.92
2018-11-26T19:20:15.818Z,86.08
2018-11-26T19:23:02.829Z,86.15
2018-11-26T19:25:50.302Z,86.12
2018-11-26T19:28:45.395Z,84.68
2018-11-26T19:34:39.710Z,85.48
2018-11-26T19:37:27.282Z,85.70
2018-11-26T19:40:14.687Z,85.84
2018-11-26T19:43:01.887Z,85.84
2018-11-26T19:45:49.225Z,86.02
2018-11-26T19:48:36.963Z,84.53
2018-11-26T19:51:24.216Z,85.10
2018-11-26T20:00:25.163Z,85.63
2018-11-26T20:03:13.411Z,85.65
2018-11-26T20:06:00.631Z,85.58
2018-11-26T20:08:48.458Z,85.70
2018-11-26T20:11:37.994Z,85.80
2018-11-26T20:14:26.075Z,85.70
2018-11-26T20:17:16.484Z,85.83
2018-11-26T20:20:05.209Z,85.93
2018-11-26T20:22:55.445Z,85.88
2018-11-26T20:25:46.369Z,85.73
2018-11-26T20:28:33.699Z,85.70
2018-11-26T20:31:21.113Z,85.54
2018-11-26T20:34:09.088Z,85.51
2018-11-26T20:36:57.109Z,85.54
2018-11-26T20:39:44.323Z,85.41
2018-11-26T20:42:31.662Z,85.50
2018-11-26T20:45:18.957Z,85.44
2018-11-26T20:48:06.354Z,85.39
2018-11-26T20:51:09.549Z,85.26
2018-11-26T20:53:56.904Z,85.32
2018-11-26T20:56:44.285Z,85.29
2018-11-26T20:59:34.200Z,85.22
2018-11-26T21:02:23.137Z,85.22
2018-11-26T21:05:10.457Z,85.30
2018-11-26T21:07:58.288Z,85.15
2018-11-26T21:10:46.159Z,85.08
2018-11-26T21:13:34.270Z,84.99
2018-11-26T21:19:28.387Z,84.77
2018-11-26T21:22:15.867Z,84.50
2018-11-26T21:28:10.124Z,83.08
2018-11-26T21:31:06.610Z,83.10
2018-11-26T21:33:54.503Z,83.09
2018-11-26T21:39:49.231Z,83.17
2018-11-26T21:42:36.145Z,83.12
2018-11-26T21:45:23.671Z,83.38
2018-11-26T21:48:10.689Z,81.90
2018-11-26T21:51:00.343Z,82.34
2018-11-26T21:53:47.670Z,80.70
2018-11-26T21:56:36.243Z,79.65
2018-11-26T21:59:23.681Z,80.60
2018-11-26T22:02:10.752Z,81.18
2018-11-26T22:04:57.912Z,81.47
2018-11-26T22:07:45.431Z,81.73
2018-11-26T22:10:32.757Z,81.87
2018-11-26T22:13:20.257Z,82.18
2018-11-26T22:16:07.649Z,82.06
2018-11-26T22:18:54.921Z,82.26
2018-11-26T22:21:42.056Z,82.11
2018-11-26T22:24:29.564Z,82.01
2018-11-26T22:27:16.879Z,82.12
2018-11-26T22:30:05.629Z,81.93
2018-11-26T22:32:52.589Z,81.98
2018-11-26T22:35:40.104Z,82.14
2018-11-26T22:38:27.079Z,82.13
2018-11-26T22:50:32.821Z,80.41
2018-11-26T22:53:23.908Z,78.87
2018-11-26T22:56:11.079Z,79.63
2018-11-26T22:58:59.963Z,79.81
2018-11-26T23:01:55.250Z,78.40
2018-11-26T23:04:42.193Z,78.97
2018-11-26T23:07:29.355Z,79.22
2018-11-26T23:10:16.950Z,77.66
2018-11-26T23:13:04.151Z,78.56
2018-11-26T23:22:05.647Z,80.05
2018-11-26T23:24:52.874Z,80.38
2018-11-26T23:27:41.266Z,80.64
2018-11-26T23:30:28.694Z,80.81
2018-11-26T23:33:16.059Z,80.93
2018-11-26T23:36:03.212Z,81.04
2018-11-26T23:38:50.685Z,81.20
2018-11-26T23:41:37.924Z,81.21
2018-11-26T23:44:25.122Z,81.29
2018-11-26T23:47:12.922Z,81.29
2018-11-26T23:50:00.266Z,79.80
2018-11-26T23:52:47.642Z,80.41
2018-11-26T23:55:35.056Z,80.83
2018-11-26T23:58:23.605Z,81.10
